createdAt,value
2018-09-28T00:01:02.718Z,7.00
2018-09-28T00:03:31.846Z,6.60
2018-09-28T00:06:01.112Z,6.73
2018-09-28T00:08:29.514Z,6.50
2018-09-28T00:10:57.920Z,7.43
2018-09-28T00:13:26.442Z,6.60
2018-09-28T00:15:54.990Z,6.70
2018-09-28T00:18:24.078Z,6.40
2018-09-28T00:20:52.501Z,6.60
2018-09-28T00:23:21.040Z,7.03
2018-09-28T00:25:49.538Z,6.53
2018-09-28T00:28:17.893Z,7.03
2018-09-28T00:30:47.214Z,7.70
2018-09-28T00:33:15.774Z,7.33
2018-09-28T00:35:44.250Z,6.67
2018-09-28T00:38:12.601Z,6.50
2018-09-28T00:40:41.084Z,6.30
2018-09-28T00:43:09.540Z,6.20
2018-09-28T00:45:37.958Z,7.50
2018-09-28T00:48:06.460Z,6.10
2018-09-28T00:50:35.065Z,6.73
2018-09-28T00:53:03.625Z,7.07
2018-09-28T00:55:32.738Z,7.30
2018-09-28T00:58:01.163Z,6.20
2018-09-28T01:00:29.559Z,6.50
2018-09-28T01:02:57.970Z,6.87
2018-09-28T01:05:26.410Z,6.20
2018-09-28T01:07:55.478Z,8.10
2018-09-28T01:10:23.943Z,5.90
2018-09-28T01:12:53.218Z,6.40
2018-09-28T01:15:21.686Z,6.40
2018-09-28T01:17:50.744Z,6.20
2018-09-28T01:20:19.142Z,6.97
2018-09-28T01:22:47.544Z,6.43
2018-09-28T01:25:15.918Z,6.60
2018-09-28T01:27:44.353Z,6.60
2018-09-28T01:30:12.838Z,6.10
2018-09-28T01:32:41.337Z,7.83
2018-09-28T01:35:09.729Z,7.03
2018-09-28T01:37:38.104Z,7.17
2018-09-28T01:40:06.515Z,7.10
2018-09-28T01:42:35.046Z,6.47
2018-09-28T01:45:03.570Z,6.77
2018-09-28T01:47:31.994Z,8.50
2018-09-28T01:50:00.411Z,7.33
2018-09-28T01:52:28.925Z,7.43
2018-09-28T01:54:57.441Z,8.40
2018-09-28T01:57:25.827Z,7.80
2018-09-28T01:59:54.226Z,7.80
2018-09-28T02:02:22.656Z,7.47
2018-09-28T02:04:51.135Z,6.87
2018-09-28T02:07:19.553Z,8.60
2018-09-28T02:09:48.328Z,7.80
2018-09-28T02:12:16.766Z,9.10
2018-09-28T02:14:45.198Z,8.30
2018-09-28T02:17:13.573Z,9.37
2018-09-28T02:19:42.118Z,8.90
2018-09-28T02:22:10.490Z,8.43
2018-09-28T02:24:38.980Z,8.10
2018-09-28T02:27:07.373Z,7.50
2018-09-28T02:29:35.951Z,7.87
2018-09-28T02:32:04.462Z,8.00
2018-09-28T02:34:33.119Z,9.37
2018-09-28T02:37:01.547Z,7.90
2018-09-28T02:39:29.940Z,7.80
2018-09-28T02:41:58.964Z,7.17
2018-09-28T02:44:27.397Z,8.43
2018-09-28T02:46:56.533Z,7.63
2018-09-28T02:49:24.921Z,7.67
2018-09-28T02:51:53.393Z,7.70
2018-09-28T02:54:22.022Z,8.30
2018-09-28T02:56:50.529Z,7.10
2018-09-28T02:59:18.920Z,8.45
2018-09-28T03:01:47.348Z,8.15
2018-09-28T03:04:16.443Z,8.57
2018-09-28T03:06:44.851Z,7.65
2018-09-28T03:09:13.311Z,8.00
2018-09-28T03:11:41.703Z,9.25
2018-09-28T03:14:10.130Z,8.78
2018-09-28T03:16:38.575Z,7.60
2018-09-28T03:19:07.024Z,6.70
2018-09-28T03:21:35.585Z,7.53
2018-09-28T03:24:04.124Z,8.23
2018-09-28T03:26:32.556Z,8.13
2018-09-28T03:29:01.043Z,7.08
2018-09-28T03:31:29.642Z,8.03
2018-09-28T03:33:59.220Z,7.40
2018-09-28T03:36:27.666Z,7.47
2018-09-28T03:38:57.421Z,7.70
2018-09-28T03:41:25.839Z,7.40
2018-09-28T03:43:54.390Z,6.90
2018-09-28T03:46:22.982Z,7.10
2018-09-28T03:48:52.275Z,7.92
2018-09-28T03:51:20.725Z,6.97
2018-09-28T03:53:49.743Z,7.05
2018-09-28T03:56:18.159Z,7.22
2018-09-28T03:58:46.619Z,7.42
2018-09-28T04:01:15.046Z,7.03
2018-09-28T04:03:43.456Z,6.62
2018-09-28T04:06:11.860Z,6.92
2018-09-28T04:08:41.209Z,6.83
2018-09-28T04:11:09.645Z,7.28
2018-09-28T04:13:38.204Z,6.47
2018-09-28T04:16:06.880Z,6.42
2018-09-28T04:18:35.270Z,6.47
2018-09-28T04:21:03.792Z,6.58
2018-09-28T04:23:32.887Z,6.42
2018-09-28T04:26:01.362Z,7.22
2018-09-28T04:28:29.949Z,7.20
2018-09-28T04:30:59.319Z,7.70
2018-09-28T04:33:27.707Z,7.90
2018-09-28T04:35:56.174Z,6.87
2018-09-28T04:38:25.208Z,7.12
2018-09-28T04:40:54.263Z,7.25
2018-09-28T04:43:22.667Z,7.58
2018-09-28T04:45:51.584Z,8.38
2018-09-28T04:48:20.014Z,7.35
2018-09-28T04:50:48.426Z,7.58
2018-09-28T04:53:16.863Z,6.45
2018-09-28T04:55:45.266Z,7.58
2018-09-28T04:58:13.813Z,7.42
2018-09-28T05:00:42.798Z,7.90
2018-09-28T05:03:11.268Z,7.08
2018-09-28T05:05:39.695Z,7.25
2018-09-28T05:08:08.107Z,7.12
2018-09-28T05:10:36.728Z,7.55
2018-09-28T05:13:05.379Z,7.67
2018-09-28T05:15:33.764Z,7.10
2018-09-28T05:18:02.232Z,8.00
2018-09-28T05:20:30.673Z,8.20
2018-09-28T05:22:59.368Z,7.40
2018-09-28T05:25:27.884Z,7.67
2018-09-28T05:27:56.263Z,6.70
2018-09-28T05:30:24.649Z,6.55
2018-09-28T05:32:53.371Z,7.85
2018-09-28T05:35:21.728Z,6.33
2018-09-28T05:37:50.906Z,7.40
2018-09-28T05:40:19.402Z,7.10
2018-09-28T05:42:48.183Z,7.47
2018-09-28T05:45:16.575Z,8.08
2018-09-28T05:47:45.020Z,7.45
2018-09-28T05:50:14.100Z,7.85
2018-09-28T05:52:42.757Z,8.40
2018-09-28T05:55:11.985Z,8.85
2018-09-28T05:57:40.443Z,7.72
2018-09-28T06:00:14.214Z,8.03
2018-09-28T06:02:47.883Z,7.28
2018-09-28T06:05:21.546Z,7.35
2018-09-28T06:07:50.032Z,7.62
2018-09-28T06:10:19.045Z,7.25
2018-09-28T06:12:47.616Z,8.00
2018-09-28T06:15:16.103Z,7.85
2018-09-28T06:17:44.636Z,8.50
2018-09-28T06:20:13.046Z,7.72
2018-09-28T06:22:41.493Z,7.92
2018-09-28T06:25:09.897Z,8.20
2018-09-28T06:27:38.335Z,7.65
2018-09-28T06:30:06.983Z,8.25
2018-09-28T06:32:35.405Z,7.55
2018-09-28T06:35:04.039Z,8.30
2018-09-28T06:37:33.111Z,7.85
2018-09-28T06:40:01.728Z,7.45
2018-09-28T06:42:30.398Z,8.60
2018-09-28T06:44:58.743Z,8.45
2018-09-28T06:47:27.145Z,9.07
2018-09-28T06:49:55.597Z,8.68
2018-09-28T06:52:24.018Z,8.60
2018-09-28T06:54:52.561Z,8.83
2018-09-28T06:57:21.596Z,9.10
2018-09-28T06:59:52.124Z,8.88
2018-09-28T07:02:20.521Z,8.73
2018-09-28T07:04:49.070Z,10.17
2018-09-28T07:07:17.562Z,10.10
2018-09-28T07:09:46.100Z,9.77
2018-09-28T07:12:14.561Z,9.47
2018-09-28T07:14:43.599Z,9.95
2018-09-28T07:17:12.191Z,8.58
2018-09-28T07:19:40.909Z,9.23
2018-09-28T07:22:10.538Z,9.80
2018-09-28T07:24:39.024Z,10.60
2018-09-28T07:27:07.376Z,9.83
2018-09-28T07:29:36.556Z,8.93
2018-09-28T07:32:05.097Z,10.40
2018-09-28T07:34:34.289Z,9.60
2018-09-28T07:37:02.886Z,10.40
2018-09-28T07:39:31.359Z,10.77
2018-09-28T07:42:00.128Z,9.97
2018-09-28T07:44:28.512Z,9.97
2018-09-28T07:46:56.928Z,10.80
2018-09-28T07:49:25.397Z,9.43
2018-09-28T07:51:53.868Z,9.40
2018-09-28T07:54:22.304Z,10.23
2018-09-28T07:56:50.808Z,9.53
2018-09-28T07:59:19.268Z,11.37
2018-09-28T08:01:47.780Z,9.93
2018-09-28T08:04:16.289Z,11.63
2018-09-28T08:06:45.739Z,12.07
2018-09-28T08:09:14.973Z,10.43
2018-09-28T08:11:43.379Z,10.90
2018-09-28T08:14:11.892Z,11.10
2018-09-28T08:16:41.030Z,10.40
2018-09-28T08:19:09.565Z,12.20
2018-09-28T08:21:38.568Z,11.50
2018-09-28T08:24:07.057Z,12.57
2018-09-28T08:26:36.233Z,11.83
2018-09-28T08:29:04.833Z,11.70
2018-09-28T08:31:33.876Z,11.80
2018-09-28T08:34:02.315Z,10.50
2018-09-28T08:36:30.881Z,10.70
2018-09-28T08:38:59.441Z,10.80
2018-09-28T08:41:28.413Z,11.23
2018-09-28T08:43:56.955Z,11.40
2018-09-28T08:46:25.344Z,12.20
2018-09-28T08:48:53.771Z,12.10
2018-09-28T08:51:22.954Z,13.30
2018-09-28T08:53:51.427Z,13.20
2018-09-28T08:56:19.876Z,13.23
2018-09-28T08:58:48.459Z,14.40
2018-09-28T09:01:16.922Z,11.80
2018-09-28T09:03:46.337Z,13.57
2018-09-28T09:06:14.785Z,13.90
2018-09-28T09:08:43.242Z,13.23
2018-09-28T09:11:11.728Z,14.30
2018-09-28T09:13:40.140Z,13.13
2018-09-28T09:16:09.052Z,13.13
2018-09-28T09:18:37.563Z,13.00
2018-09-28T09:21:06.075Z,12.90
2018-09-28T09:23:34.610Z,13.50
2018-09-28T09:26:03.027Z,14.70
2018-09-28T09:28:31.480Z,11.83
2018-09-28T09:30:59.921Z,13.80
2018-09-28T09:33:28.379Z,12.57
2018-09-28T09:35:58.050Z,11.33
2018-09-28T09:38:26.524Z,12.33
2018-09-28T09:40:55.019Z,14.70
2018-09-28T09:43:24.064Z,12.50
2018-09-28T09:45:52.552Z,13.20
2018-09-28T09:48:21.120Z,12.90
2018-09-28T09:50:50.278Z,13.30
2018-09-28T09:53:18.733Z,13.73
2018-09-28T09:55:47.820Z,13.03
2018-09-28T09:58:16.382Z,15.67
2018-09-28T10:00:50.186Z,13.40
2018-09-28T10:03:23.857Z,13.27
2018-09-28T10:05:52.255Z,12.70
2018-09-28T10:08:20.668Z,12.60
2018-09-28T10:10:49.004Z,14.27
2018-09-28T10:13:17.461Z,12.97
2018-09-28T10:15:46.595Z,13.30
2018-09-28T10:18:15.057Z,14.13
2018-09-28T10:20:43.500Z,14.30
2018-09-28T10:23:11.908Z,13.30
2018-09-28T10:25:40.415Z,14.07
2018-09-28T10:28:09.396Z,14.17
2018-09-28T10:30:37.799Z,15.93
2018-09-28T10:33:06.238Z,15.13
2018-09-28T10:35:34.645Z,16.40
2018-09-28T10:38:03.150Z,21.50
2018-09-28T10:40:31.707Z,15.70
2018-09-28T10:43:00.064Z,16.07
2018-09-28T10:45:28.616Z,16.33
2018-09-28T10:47:56.944Z,15.80
2018-09-28T10:50:25.493Z,17.07
2018-09-28T10:52:54.089Z,19.77
2018-09-28T10:55:22.398Z,19.70
2018-09-28T10:57:50.816Z,19.47
2018-09-28T11:00:20.150Z,18.70
2018-09-28T11:02:48.509Z,15.70
2018-09-28T11:05:16.948Z,14.97
2018-09-28T11:07:45.504Z,14.90
2018-09-28T11:10:14.104Z,14.30
2018-09-28T11:12:42.499Z,13.83
2018-09-28T11:15:10.945Z,14.67
2018-09-28T11:17:39.901Z,13.03
2018-09-28T11:20:08.684Z,12.50
2018-09-28T11:22:37.311Z,13.60
2018-09-28T11:25:05.892Z,13.43
2018-09-28T11:27:34.370Z,12.80
2018-09-28T11:30:02.906Z,12.20
2018-09-28T11:32:31.464Z,11.67
2018-09-28T11:35:00.639Z,11.77
2018-09-28T11:37:29.731Z,11.07
2018-09-28T11:39:58.191Z,10.23
2018-09-28T11:42:26.739Z,9.90
2018-09-28T11:44:55.758Z,10.33
2018-09-28T11:47:24.251Z,9.30
2018-09-28T11:49:53.356Z,9.83
2018-09-28T11:52:21.881Z,9.00
2018-09-28T11:54:50.421Z,8.43
2018-09-28T11:57:18.959Z,8.20
2018-09-28T11:59:48.122Z,8.80
2018-09-28T12:02:16.613Z,9.20
2018-09-28T12:04:45.151Z,7.03
2018-09-28T12:07:13.809Z,7.60
2018-09-28T12:09:43.424Z,7.70
2018-09-28T12:12:11.828Z,6.83
2018-09-28T12:14:40.280Z,6.77
2018-09-28T12:17:08.792Z,7.37
2018-09-28T12:19:37.188Z,5.70
2018-09-28T12:22:05.755Z,6.00
2018-09-28T12:24:34.160Z,7.20
2018-09-28T12:27:02.590Z,6.20
2018-09-28T12:29:31.140Z,6.10
2018-09-28T12:31:59.616Z,5.77
2018-09-28T12:34:28.040Z,6.47
2018-09-28T12:37:01.098Z,6.30
2018-09-28T12:39:29.642Z,5.30
2018-09-28T12:41:58.050Z,6.00
2018-09-28T12:44:26.663Z,5.73
2018-09-28T12:46:54.999Z,5.93
2018-09-28T12:49:23.454Z,7.23
2018-09-28T12:51:51.903Z,7.30
2018-09-28T12:54:20.844Z,7.77
2018-09-28T12:56:49.298Z,8.60
2018-09-28T12:59:18.375Z,8.80
2018-09-28T13:01:46.822Z,8.50
2018-09-28T13:04:18.460Z,7.57
2018-09-28T13:06:48.952Z,5.53
2018-09-28T13:09:17.932Z,5.73
2018-09-28T13:11:46.775Z,5.50
2018-09-28T13:14:15.229Z,6.90
2018-09-28T13:16:43.689Z,6.40
2018-09-28T13:19:12.202Z,5.97
2018-09-28T13:21:40.654Z,8.33
2018-09-28T13:24:09.145Z,10.40
2018-09-28T13:26:37.576Z,10.20
2018-09-28T13:29:06.039Z,12.27
2018-09-28T13:31:34.727Z,13.77
2018-09-28T13:34:03.230Z,15.00
2018-09-28T13:36:32.297Z,15.13
2018-09-28T13:39:00.758Z,15.47
2018-09-28T13:41:29.141Z,17.70
2018-09-28T13:43:57.588Z,17.87
2018-09-28T13:46:26.097Z,17.90
2018-09-28T13:48:54.601Z,16.73
2018-09-28T13:51:23.156Z,17.90
2018-09-28T13:53:52.168Z,18.50
2018-09-28T13:56:20.672Z,18.60
2018-09-28T13:58:49.038Z,17.40
2018-09-28T14:01:17.487Z,13.10
2018-09-28T14:03:45.926Z,10.63
2018-09-28T14:06:14.344Z,10.40
2018-09-28T14:08:42.787Z,10.00
2018-09-28T14:11:11.188Z,10.23
2018-09-28T14:13:39.681Z,9.30
2018-09-28T14:16:08.244Z,7.47
2018-09-28T14:18:36.701Z,8.13
2018-09-28T14:21:05.156Z,8.30
2018-09-28T14:23:34.228Z,8.00
2018-09-28T14:26:03.517Z,8.37
2018-09-28T14:28:32.643Z,7.20
2018-09-28T14:31:00.939Z,7.80
2018-09-28T14:33:29.369Z,8.27
2018-09-28T14:35:57.803Z,7.37
2018-09-28T14:38:26.413Z,6.30
2018-09-28T14:40:54.762Z,6.60
2018-09-28T14:43:23.218Z,5.30
2018-09-28T14:45:51.694Z,5.60
2018-09-28T14:48:20.242Z,5.90
2018-09-28T14:50:48.826Z,5.20
2018-09-28T14:53:17.162Z,5.30
2018-09-28T14:55:45.594Z,5.20
2018-09-28T14:58:14.355Z,5.23
2018-09-28T15:00:42.782Z,4.23
2018-09-28T15:03:11.267Z,4.67
2018-09-28T15:05:39.661Z,4.17
2018-09-28T15:08:08.213Z,4.20
2018-09-28T15:10:37.349Z,3.40
2018-09-28T15:13:05.820Z,4.37
2018-09-28T15:15:34.323Z,4.47
2018-09-28T15:18:03.371Z,4.30
2018-09-28T15:20:31.820Z,4.33
2018-09-28T15:23:00.223Z,4.20
2018-09-28T15:25:28.731Z,4.27
2018-09-28T15:27:57.149Z,4.33
2018-09-28T15:30:25.732Z,4.47
2018-09-28T15:32:54.144Z,3.67
2018-09-28T15:35:22.648Z,4.07
2018-09-28T15:37:51.031Z,3.60
2018-09-28T15:40:19.455Z,3.93
2018-09-28T15:42:47.916Z,4.17
2018-09-28T15:45:17.066Z,3.70
2018-09-28T15:47:45.619Z,3.77
2018-09-28T15:50:13.896Z,3.23
2018-09-28T15:52:42.479Z,3.27
2018-09-28T15:55:10.919Z,3.83
2018-09-28T15:57:39.346Z,3.90
2018-09-28T16:00:08.372Z,4.43
2018-09-28T16:02:36.812Z,3.40
2018-09-28T16:05:05.431Z,3.70
2018-09-28T16:07:34.793Z,3.50
2018-09-28T16:10:03.238Z,4.50
2018-09-28T16:12:31.658Z,3.60
2018-09-28T16:15:00.820Z,3.47
2018-09-28T16:17:29.279Z,3.70
2018-09-28T16:19:57.776Z,2.47
2018-09-28T16:22:26.232Z,4.03
2018-09-28T16:24:54.715Z,2.80
2018-09-28T16:27:23.164Z,2.37
2018-09-28T16:29:52.176Z,3.53
2018-09-28T16:32:20.643Z,3.00
2018-09-28T16:34:49.141Z,3.70
2018-09-28T16:37:17.581Z,3.10
2018-09-28T16:39:46.074Z,2.27
2018-09-28T16:42:14.547Z,3.50
2018-09-28T16:44:43.121Z,2.40
2018-09-28T16:47:11.521Z,2.57
2018-09-28T16:49:40.122Z,2.23
2018-09-28T16:52:08.731Z,2.60
2018-09-28T16:54:37.156Z,2.20
2018-09-28T16:57:06.263Z,2.50
2018-09-28T16:59:34.697Z,2.47
2018-09-28T17:02:03.122Z,2.43
2018-09-28T17:04:31.527Z,2.23
2018-09-28T17:06:59.911Z,2.17
2018-09-28T17:09:28.376Z,2.53
2018-09-28T17:11:56.797Z,2.57
2018-09-28T17:14:25.331Z,2.67
2018-09-28T17:16:53.722Z,3.20
2018-09-28T17:19:22.166Z,2.30
2018-09-28T17:21:50.591Z,1.80
2018-09-28T17:24:19.020Z,2.37
2018-09-28T17:26:47.554Z,2.37
2018-09-28T17:29:16.320Z,2.10
2018-09-28T17:31:44.727Z,2.53
2018-09-28T17:34:13.224Z,2.67
2018-09-28T17:36:41.638Z,1.83
2018-09-28T17:39:11.469Z,2.40
2018-09-28T17:41:39.971Z,2.83
2018-09-28T17:44:09.362Z,3.37
2018-09-28T17:46:37.780Z,2.30
2018-09-28T17:49:06.489Z,2.70
2018-09-28T17:51:34.933Z,3.07
2018-09-28T17:54:03.585Z,2.30
2018-09-28T17:56:32.005Z,3.03
2018-09-28T17:59:00.447Z,2.60
2018-09-28T18:01:28.926Z,3.30
2018-09-28T18:03:57.404Z,3.47
2018-09-28T18:06:25.810Z,2.33
2018-09-28T18:08:54.947Z,3.23
2018-09-28T18:11:23.363Z,2.10
2018-09-28T18:13:51.847Z,3.87
2018-09-28T18:16:20.317Z,2.70
2018-09-28T18:18:48.885Z,2.77
2018-09-28T18:21:17.875Z,2.80
2018-09-28T18:23:46.212Z,2.50
2018-09-28T18:26:14.746Z,3.40
2018-09-28T18:28:43.196Z,3.73
2018-09-28T18:31:11.782Z,3.00
2018-09-28T18:33:40.289Z,2.70
2018-09-28T18:36:08.739Z,3.33
2018-09-28T18:38:37.225Z,3.10
2018-09-28T18:41:05.736Z,2.80
2018-09-28T18:43:34.181Z,2.80
2018-09-28T18:46:02.689Z,2.77
2018-09-28T18:48:31.215Z,2.07
2018-09-28T18:50:59.651Z,2.30
2018-09-28T18:53:28.087Z,3.07
2018-09-28T18:55:56.759Z,3.00
2018-09-28T18:58:25.260Z,2.50
2018-09-28T19:00:53.960Z,3.73
2018-09-28T19:03:22.600Z,2.40
2018-09-28T19:05:51.865Z,3.03
2018-09-28T19:08:20.296Z,2.70
2018-09-28T19:10:49.417Z,3.90
2018-09-28T19:13:17.853Z,3.00
2018-09-28T19:15:46.330Z,2.87
2018-09-28T19:18:14.822Z,3.33
2018-09-28T19:20:43.282Z,3.03
2018-09-28T19:23:11.852Z,3.53
2018-09-28T19:25:40.860Z,3.00
2018-09-28T19:28:09.301Z,2.77
2018-09-28T19:30:37.852Z,3.03
2018-09-28T19:33:06.976Z,2.93
2018-09-28T19:35:35.424Z,3.77
2018-09-28T19:38:03.876Z,3.97
2018-09-28T19:40:32.332Z,3.50
2018-09-28T19:43:00.766Z,3.20
2018-09-28T19:45:29.282Z,3.70
2018-09-28T19:47:57.939Z,3.93
2018-09-28T19:50:26.364Z,3.40
2018-09-28T19:52:54.899Z,3.50
2018-09-28T19:55:23.320Z,3.00
2018-09-28T19:57:51.833Z,3.43
2018-09-28T20:00:20.376Z,3.83
2018-09-28T20:02:49.722Z,3.90
2018-09-28T20:05:18.213Z,4.30
2018-09-28T20:07:46.653Z,3.60
2018-09-28T20:10:15.149Z,3.50
2018-09-28T20:12:43.611Z,3.90
2018-09-28T20:15:12.037Z,3.27
2018-09-28T20:17:40.503Z,3.30
2018-09-28T20:20:08.917Z,3.40
2018-09-28T20:22:37.399Z,3.60
2018-09-28T20:25:06.023Z,3.40
2018-09-28T20:27:35.496Z,4.20
2018-09-28T20:30:04.128Z,3.57
2018-09-28T20:32:32.595Z,4.17
2018-09-28T20:35:01.084Z,3.43
2018-09-28T20:37:29.641Z,3.30
2018-09-28T20:39:58.691Z,3.90
2018-09-28T20:42:28.159Z,3.33
2018-09-28T20:44:56.571Z,3.70
2018-09-28T20:47:25.896Z,3.30
2018-09-28T20:49:54.367Z,3.40
2018-09-28T20:52:22.797Z,3.27
2018-09-28T20:54:51.256Z,3.40
2018-09-28T20:57:20.415Z,3.40
2018-09-28T20:59:48.901Z,4.33
2018-09-28T21:02:17.419Z,4.03
2018-09-28T21:04:45.877Z,4.00
2018-09-28T21:07:14.903Z,4.33
2018-09-28T21:09:43.351Z,3.67
2018-09-28T21:12:13.411Z,3.30
2018-09-28T21:14:42.563Z,3.80
2018-09-28T21:17:10.984Z,3.43
2018-09-28T21:19:39.407Z,2.67
2018-09-28T21:22:07.846Z,4.10
2018-09-28T21:24:36.462Z,3.00
2018-09-28T21:27:04.910Z,3.60
2018-09-28T21:29:33.351Z,3.17
2018-09-28T21:32:01.819Z,4.25
2018-09-28T21:34:30.253Z,2.95
2018-09-28T21:36:58.872Z,3.77
2018-09-28T21:39:27.350Z,3.50
2018-09-28T21:41:56.880Z,3.20
2018-09-28T21:44:25.301Z,2.98
2018-09-28T21:46:53.734Z,3.42
2018-09-28T21:49:22.185Z,2.85
2018-09-28T21:51:50.592Z,2.83
2018-09-28T21:54:19.031Z,2.65
2018-09-28T21:56:47.458Z,3.80
2018-09-28T21:59:15.871Z,2.83
2018-09-28T22:01:44.295Z,3.62
2018-09-28T22:04:12.801Z,2.80
2018-09-28T22:06:41.348Z,2.85
2018-09-28T22:09:09.771Z,2.92
2018-09-28T22:11:38.201Z,2.55
2018-09-28T22:14:06.701Z,3.43
2018-09-28T22:16:35.109Z,2.87
2018-09-28T22:19:03.485Z,2.65
2018-09-28T22:21:31.967Z,2.10
2018-09-28T22:24:00.459Z,2.90
2018-09-28T22:26:29.461Z,2.87
2018-09-28T22:28:57.896Z,2.45
2018-09-28T22:31:26.526Z,2.77
2018-09-28T22:33:55.007Z,3.35
2018-09-28T22:36:23.465Z,3.02
2018-09-28T22:38:51.884Z,2.50
2018-09-28T22:41:20.368Z,2.70
2018-09-28T22:43:48.806Z,2.35
2018-09-28T22:46:17.218Z,2.95
2018-09-28T22:48:45.631Z,3.10
2018-09-28T22:51:14.075Z,2.85
2018-09-28T22:53:42.558Z,3.20
2018-09-28T22:56:11.633Z,2.80
2018-09-28T22:58:40.039Z,2.70
2018-09-28T23:01:08.943Z,2.75
2018-09-28T23:03:38.224Z,2.72
2018-09-28T23:06:06.843Z,3.33
2018-09-28T23:08:35.367Z,2.52
2018-09-28T23:11:03.824Z,2.65
2018-09-28T23:13:32.241Z,2.47
2018-09-28T23:16:00.663Z,2.67
2018-09-28T23:18:29.860Z,2.75
2018-09-28T23:20:58.286Z,1.98
2018-09-28T23:23:26.808Z,2.00
2018-09-28T23:25:55.183Z,2.62
2018-09-28T23:28:23.606Z,2.20
2018-09-28T23:30:52.624Z,2.25
2018-09-28T23:33:21.060Z,2.33
2018-09-28T23:35:49.974Z,2.15
2018-09-28T23:38:18.373Z,2.10
2018-09-28T23:40:46.802Z,1.85
2018-09-28T23:43:15.222Z,2.55
2018-09-28T23:45:43.639Z,2.35
2018-09-28T23:48:12.111Z,2.58
2018-09-28T23:50:40.547Z,3.15
2018-09-28T23:53:08.984Z,2.55
2018-09-28T23:55:37.435Z,2.80
2018-09-28T23:58:05.948Z,1.80
